KPUW/PUW METAR and TAF weather

Enter ICAO airport designator
Station Type Date Time Source
KPUW METAR 2018/12/19 08:53 UTC NOAA

KPUW 190853Z AUTO 24020G32KT 10SM BKN020 BKN027 OVC033 05/02 A3011 RMK AO2 PK WND 24032/0851 SLP208 T00500022 53028


Station Type Date Time Source
KPUW Decoded METAR 2018/12/19 08:53 UTC NOAA

PULLMAN/MOSCOW RGNL AIRPORT , WA, United States (KPUW) 46-45N 117-07W 773M
Dec 19, 2018 - 03:53 AM EST / 2018.12.19 0853 UTC
Wind: from the WSW (240 degrees) at 23 MPH (20 KT) gusting to 37 MPH (32 KT):0
Visibility: 10 mile(s):0
Sky conditions: overcast
Temperature: 41.0 F (5.0 C)
Dew Point: 36.0 F (2.2 C)
Relative Humidity: 82%
Pressure (altimeter): 30.11 in. Hg (1019 hPa)
Pressure tendency: 0.08 inches (2.8 hPa) higher than three hours ago
ob: KPUW 190853Z AUTO 24020G32KT 10SM BKN020 BKN027 OVC033 05/02 A3011 RMK AO2 PK WND 24032/0851 SLP208 T00500022 53028
cycle: 9

Station Type Date Time Source
KPUW TAF 2018/12/19 09:15 UTC NOAA

TAF
AMD KPUW 190913Z 1909/2006 24018G26KT P6SM BKN020 OVC035
FM191500 23009G15KT P6SM SCT015 OVC035
FM192000 22011G16KT P6SM SCT030 BKN100
FM200000 14009KT P6SM SCT040 BKN070 OVC090


Example: see airport list